Lake Mills, WI

11:17 AM CDT on July 27, 2016 (GMT -0500)
Cambridge | | Change Station

Elev 883 ft 43.00 °N, 89.01 °W | Updated 5 seconds ago

Mostly Cloudy
Mostly Cloudy
89.2 °F
Feels Like 95 °F
N
0.0
Wind Variable Wind from North

Today
High -- | Low -- °F
--% Chance of Precip.
Yesterday
High -- | Low -- °F
Precip. -- in
Pressure 30.02 in
Visibility 10.0 miles
Clouds Mostly Cloudy 12000 ft
Heat Index 95 °F
Dew Point 71 °F
Humidity 55%
Rainfall Not available.
Snow Depth Not available.
5:41 AM 8:22 PM
Last Quarter, 42% visible
METAR KRYV 271555Z AUTO 26004KT 10SM BKN120 28/22 A3002 RMK AO2 T02750215
Pressure 30.02 in
Visibility 10.0 miles
Clouds Mostly Cloudy 12000 ft
Heat Index 95 °F
Dew Point 71 °F
Humidity 55%
Rainfall Not available.
Snow Depth Not available.
5:41 AM 8:22 PM
Last Quarter, 42% visible
METAR KRYV 271555Z AUTO 26004KT 10SM BKN120 28/22 A3002 RMK AO2 T02750215

10-Day Weather Forecast

Almanac

Astronomy

Jul. 27, 2016 Rise Set
Actual Time
Civil Twilight
Nautical Twilight
Astronomical Twilight
Moon
Length of Visible Light
Length of Day
Tomorrow will be .
, % of the Moon is Illuminated

Today's Extremes

State Highs State Lows

Community

WunderPhotos

Upload Photos

1,927,877 photos uploaded!

WunderBlog® & News

Nearby

Air Quality

  Air Quality AQ Index Pollutant
Not available.

Snow Depth

Station Depth Elevation

Earthquake Activity

City Distance Mag. Time & Date
Minimum magnitude displayed is 2.5.

Coastal Water Temperatures

Place Temperature

Stations

Nearby Weather Stations

Station Location Temp. Windchill Dew Point Humidity Wind Precip. Elev Updated Type
                   

Watches & Warnings

There are currently no watches in effect.